createdAt,value
2019-03-25T00:00:39.892Z,10.31
2019-03-25T00:03:08.363Z,10.24
2019-03-25T00:05:35.025Z,10.28
2019-03-25T00:08:01.683Z,10.26
2019-03-25T00:10:28.423Z,10.21
2019-03-25T00:12:55.074Z,10.15
2019-03-25T00:15:21.807Z,10.07
2019-03-25T00:17:48.520Z,10.11
2019-03-25T00:20:15.169Z,10.09
2019-03-25T00:22:41.909Z,9.96
2019-03-25T00:25:08.589Z,10.02
2019-03-25T00:27:35.296Z,9.96
2019-03-25T00:30:02.009Z,9.87
2019-03-25T00:32:29.846Z,9.84
2019-03-25T00:34:56.443Z,9.81
2019-03-25T00:37:23.143Z,9.79
2019-03-25T00:39:49.896Z,9.74
2019-03-25T00:42:16.651Z,9.75
2019-03-25T00:44:43.339Z,9.77
2019-03-25T00:47:10.074Z,9.73
2019-03-25T00:49:36.714Z,9.69
2019-03-25T00:52:03.392Z,9.68
2019-03-25T00:54:30.123Z,9.68
2019-03-25T00:56:56.728Z,9.63
2019-03-25T00:59:23.361Z,9.54
2019-03-25T01:01:50.060Z,9.34
2019-03-25T01:04:16.686Z,9.34
2019-03-25T01:06:43.311Z,9.30
2019-03-25T01:09:09.984Z,9.27
2019-03-25T01:11:36.608Z,9.24
2019-03-25T01:14:03.249Z,8.96
2019-03-25T01:16:29.947Z,8.76
2019-03-25T01:18:56.570Z,8.80
2019-03-25T01:21:23.195Z,8.81
2019-03-25T01:23:49.887Z,8.93
2019-03-25T01:26:16.590Z,8.71
2019-03-25T01:28:43.349Z,8.58
2019-03-25T01:31:10.068Z,8.47
2019-03-25T01:33:36.678Z,8.52
2019-03-25T01:36:03.357Z,8.48
2019-03-25T01:38:30.053Z,8.55
2019-03-25T01:40:57.633Z,8.59
2019-03-25T01:43:24.343Z,8.61
2019-03-25T01:45:51.071Z,8.65
2019-03-25T01:48:17.680Z,8.61
2019-03-25T01:50:44.381Z,8.66
2019-03-25T01:53:11.087Z,8.65
2019-03-25T01:55:37.754Z,8.64
2019-03-25T01:58:04.457Z,8.62
2019-03-25T02:00:31.139Z,8.57
2019-03-25T02:02:57.916Z,8.53
2019-03-25T02:05:24.555Z,8.50
2019-03-25T02:07:51.275Z,8.43
2019-03-25T02:10:18.025Z,8.35
2019-03-25T02:12:44.714Z,8.27
2019-03-25T02:15:14.233Z,8.32
2019-03-25T02:17:41.014Z,8.38
2019-03-25T02:20:07.986Z,8.43
2019-03-25T02:22:34.783Z,8.43
2019-03-25T02:25:01.929Z,8.44
2019-03-25T02:27:28.557Z,8.38
2019-03-25T02:29:55.376Z,8.33
2019-03-25T02:32:22.030Z,8.24
2019-03-25T02:34:48.698Z,8.17
2019-03-25T02:37:15.499Z,8.16
2019-03-25T02:39:42.123Z,8.06
2019-03-25T02:42:08.955Z,7.96
2019-03-25T02:44:35.645Z,8.00
2019-03-25T02:47:02.355Z,7.89
2019-03-25T02:49:29.090Z,7.92
2019-03-25T02:51:55.874Z,7.83
2019-03-25T02:54:22.531Z,7.68
2019-03-25T02:56:49.220Z,7.68
2019-03-25T02:59:15.895Z,7.48
2019-03-25T03:01:42.655Z,7.51
2019-03-25T03:04:09.363Z,7.56
2019-03-25T03:06:36.097Z,7.51
2019-03-25T03:09:05.317Z,7.38
2019-03-25T03:11:33.020Z,7.43
2019-03-25T03:13:59.724Z,7.39
2019-03-25T03:16:26.453Z,7.46
2019-03-25T03:18:53.183Z,7.35
2019-03-25T03:21:19.905Z,7.37
2019-03-25T03:23:46.532Z,7.44
2019-03-25T03:26:13.265Z,7.41
2019-03-25T03:28:39.960Z,7.35
2019-03-25T03:31:06.765Z,7.28
2019-03-25T03:33:33.609Z,7.20
2019-03-25T03:36:01.329Z,7.11
2019-03-25T03:38:27.961Z,6.91
2019-03-25T03:40:54.728Z,7.01
2019-03-25T03:43:21.516Z,6.95
2019-03-25T03:45:48.258Z,6.92
2019-03-25T03:48:14.970Z,7.00
2019-03-25T03:50:41.770Z,6.96
2019-03-25T03:53:08.603Z,6.91
2019-03-25T03:55:37.880Z,6.90
2019-03-25T03:58:06.678Z,6.82
2019-03-25T04:00:33.709Z,6.79
2019-03-25T04:03:00.391Z,6.81
2019-03-25T04:05:27.429Z,6.74
2019-03-25T04:07:54.040Z,6.81
2019-03-25T04:10:20.759Z,6.76
2019-03-25T04:12:47.447Z,6.81
2019-03-25T04:15:23.774Z,6.83
2019-03-25T04:17:50.420Z,6.76
2019-03-25T04:20:17.143Z,6.70
2019-03-25T04:22:43.750Z,6.61
2019-03-25T04:25:10.446Z,6.65
2019-03-25T04:27:37.147Z,6.58
2019-03-25T04:30:04.386Z,6.64
2019-03-25T04:32:31.235Z,6.57
2019-03-25T04:34:58.101Z,6.59
2019-03-25T04:37:24.869Z,6.60
2019-03-25T04:39:51.664Z,6.53
2019-03-25T04:42:18.401Z,6.41
2019-03-25T04:44:46.059Z,6.36
2019-03-25T04:47:12.796Z,6.42
2019-03-25T04:49:39.648Z,6.39
2019-03-25T04:52:06.275Z,6.35
2019-03-25T04:54:33.027Z,6.39
2019-03-25T04:56:59.761Z,6.41
2019-03-25T04:59:26.499Z,6.33
2019-03-25T05:01:53.243Z,6.40
2019-03-25T05:04:21.100Z,6.41
2019-03-25T05:06:47.736Z,6.26
2019-03-25T05:09:14.585Z,6.27
2019-03-25T05:11:41.331Z,6.30
2019-03-25T05:14:08.167Z,6.28
2019-03-25T05:16:34.900Z,6.30
2019-03-25T05:19:01.747Z,6.22
2019-03-25T05:21:28.487Z,6.25
2019-03-25T05:23:55.219Z,6.29
2019-03-25T05:26:21.898Z,6.35
2019-03-25T05:28:48.703Z,6.35
2019-03-25T05:31:15.436Z,6.34
2019-03-25T05:33:42.288Z,6.32
2019-03-25T05:36:09.027Z,6.36
2019-03-25T05:38:35.671Z,6.43
2019-03-25T05:41:02.982Z,6.44
2019-03-25T05:43:29.654Z,6.56
2019-03-25T05:45:57.309Z,6.59
2019-03-25T05:48:24.053Z,6.69
2019-03-25T05:50:50.692Z,6.79
2019-03-25T05:53:17.431Z,6.75
2019-03-25T05:55:44.170Z,6.92
2019-03-25T05:58:10.800Z,7.03
2019-03-25T06:00:38.365Z,7.16
2019-03-25T06:03:05.105Z,7.33
2019-03-25T06:05:31.845Z,7.44
2019-03-25T06:07:58.586Z,7.36
2019-03-25T06:10:25.327Z,7.50
2019-03-25T06:12:52.065Z,7.82
2019-03-25T06:15:18.797Z,8.04
2019-03-25T06:17:45.639Z,8.17
2019-03-25T06:20:12.583Z,8.48
2019-03-25T06:22:39.320Z,8.60
2019-03-25T06:25:06.644Z,8.68
2019-03-25T06:27:33.322Z,8.93
2019-03-25T06:30:00.061Z,9.18
2019-03-25T06:32:26.790Z,9.38
2019-03-25T06:34:53.394Z,9.61
2019-03-25T06:37:20.064Z,9.84
2019-03-25T06:39:46.907Z,10.14
2019-03-25T06:42:13.756Z,10.20
2019-03-25T06:44:40.487Z,10.32
2019-03-25T06:47:07.266Z,10.18
2019-03-25T06:49:34.066Z,10.03
2019-03-25T06:52:00.917Z,10.37
2019-03-25T06:54:27.766Z,10.52
2019-03-25T06:56:54.497Z,10.55
2019-03-25T06:59:21.167Z,10.66
2019-03-25T07:01:47.869Z,10.83
2019-03-25T07:04:14.647Z,10.83
2019-03-25T07:06:41.446Z,10.76
2019-03-25T07:09:08.165Z,10.85
2019-03-25T07:11:35.099Z,10.85
2019-03-25T07:14:01.728Z,10.95
2019-03-25T07:16:28.515Z,10.86
2019-03-25T07:18:55.153Z,10.98
2019-03-25T07:21:21.787Z,11.04
2019-03-25T07:23:48.539Z,10.96
2019-03-25T07:26:15.271Z,10.94
2019-03-25T07:28:41.882Z,10.88
2019-03-25T07:31:08.648Z,10.90
2019-03-25T07:33:35.276Z,10.87
2019-03-25T07:36:02.023Z,11.05
2019-03-25T07:38:28.763Z,11.25
2019-03-25T07:40:55.394Z,11.30
2019-03-25T07:43:22.030Z,11.33
2019-03-25T07:45:51.395Z,11.35
2019-03-25T07:48:18.480Z,11.48
2019-03-25T07:50:45.217Z,11.60
2019-03-25T07:53:11.927Z,11.67
2019-03-25T07:55:38.545Z,11.71
2019-03-25T07:58:05.279Z,11.67
2019-03-25T08:00:31.965Z,11.61
2019-03-25T08:02:59.937Z,11.75
2019-03-25T08:05:26.706Z,11.82
2019-03-25T08:07:53.431Z,11.83
2019-03-25T08:10:31.945Z,11.98
2019-03-25T08:12:59.862Z,12.02
2019-03-25T08:15:26.713Z,11.93
2019-03-25T08:17:53.496Z,12.01
2019-03-25T08:20:20.336Z,12.10
2019-03-25T08:22:47.015Z,12.14
2019-03-25T08:25:13.758Z,12.33
2019-03-25T08:27:40.426Z,12.51
2019-03-25T08:30:08.721Z,12.57
2019-03-25T08:32:35.978Z,12.67
2019-03-25T08:35:04.511Z,12.61
2019-03-25T08:37:31.291Z,12.74
2019-03-25T08:39:57.954Z,12.78
2019-03-25T08:42:24.673Z,12.89
2019-03-25T08:44:51.387Z,13.05
2019-03-25T08:47:18.017Z,13.16
2019-03-25T08:49:45.534Z,13.23
2019-03-25T08:52:12.522Z,13.44
2019-03-25T08:54:39.182Z,13.52
2019-03-25T08:57:05.865Z,13.52
2019-03-25T08:59:32.567Z,13.69
2019-03-25T09:01:59.210Z,13.69
2019-03-25T09:04:25.887Z,13.76
2019-03-25T09:06:53.598Z,13.84
2019-03-25T09:09:20.335Z,13.80
2019-03-25T09:11:47.133Z,13.90
2019-03-25T09:14:13.857Z,13.98
2019-03-25T09:16:40.483Z,14.06
2019-03-25T09:19:07.147Z,14.20
2019-03-25T09:21:33.847Z,14.23
2019-03-25T09:24:00.658Z,14.29
2019-03-25T09:26:27.364Z,14.45
2019-03-25T09:28:54.082Z,14.56
2019-03-25T09:31:20.791Z,14.51
2019-03-25T09:33:47.554Z,14.41
2019-03-25T09:36:15.130Z,14.51
2019-03-25T09:38:41.867Z,14.49
2019-03-25T09:41:08.863Z,14.57
2019-03-25T09:43:35.683Z,14.71
2019-03-25T09:46:02.413Z,14.79
2019-03-25T09:48:29.085Z,14.92
2019-03-25T09:50:55.865Z,14.90
2019-03-25T09:53:22.511Z,15.04
2019-03-25T09:55:49.258Z,15.01
2019-03-25T09:58:16.034Z,14.92
2019-03-25T10:00:42.674Z,15.04
2019-03-25T10:03:09.320Z,15.09
2019-03-25T10:05:36.065Z,15.18
2019-03-25T10:08:02.686Z,15.13
2019-03-25T10:10:29.382Z,15.28
2019-03-25T10:12:56.884Z,15.39
2019-03-25T10:15:23.770Z,15.46
2019-03-25T10:17:50.406Z,15.61
2019-03-25T10:20:17.151Z,15.74
2019-03-25T10:22:43.811Z,15.74
2019-03-25T10:25:11.575Z,15.79
2019-03-25T10:27:38.320Z,15.99
2019-03-25T10:30:09.598Z,16.19
2019-03-25T10:32:36.332Z,16.19
2019-03-25T10:35:04.515Z,16.26
2019-03-25T10:37:31.119Z,16.32
2019-03-25T10:39:57.837Z,16.29
2019-03-25T10:42:24.627Z,16.37
2019-03-25T10:44:52.326Z,16.39
2019-03-25T10:47:19.065Z,16.52
2019-03-25T10:49:45.804Z,16.42
2019-03-25T10:52:13.513Z,16.42
2019-03-25T10:54:40.184Z,16.51
2019-03-25T10:57:06.926Z,16.43
2019-03-25T10:59:33.610Z,16.65
2019-03-25T11:02:00.271Z,16.57
2019-03-25T11:04:26.983Z,16.79
2019-03-25T11:06:53.631Z,16.96
2019-03-25T11:09:20.322Z,16.87
2019-03-25T11:11:47.015Z,16.72
2019-03-25T11:14:13.650Z,16.74
2019-03-25T11:16:40.317Z,16.72
2019-03-25T11:19:07.051Z,16.87
2019-03-25T11:21:33.681Z,17.02
2019-03-25T11:24:00.358Z,17.14
2019-03-25T11:26:27.087Z,17.22
2019-03-25T11:28:54.245Z,17.29
2019-03-25T11:31:20.939Z,17.05
2019-03-25T11:33:47.651Z,17.16
2019-03-25T11:36:14.687Z,17.13
2019-03-25T11:38:41.409Z,17.17
2019-03-25T11:41:08.119Z,16.97
2019-03-25T11:43:34.737Z,16.88
2019-03-25T11:46:01.435Z,16.93
2019-03-25T11:48:28.143Z,17.03
2019-03-25T11:50:54.962Z,17.12
2019-03-25T11:53:21.705Z,17.29
2019-03-25T11:55:48.447Z,17.31
2019-03-25T11:58:15.047Z,17.39
2019-03-25T12:00:41.687Z,17.51
2019-03-25T12:03:08.425Z,17.48
2019-03-25T12:05:35.055Z,17.63
2019-03-25T12:08:02.656Z,17.70
2019-03-25T12:10:29.353Z,17.75
2019-03-25T12:12:55.982Z,17.71
2019-03-25T12:15:22.588Z,17.61
2019-03-25T12:17:49.302Z,17.52
2019-03-25T12:20:15.907Z,17.56
2019-03-25T12:22:42.581Z,17.47
2019-03-25T12:25:09.475Z,17.52
2019-03-25T12:27:36.094Z,17.53
2019-03-25T12:30:05.114Z,17.66
2019-03-25T12:32:31.779Z,17.50
2019-03-25T12:34:58.488Z,17.64
2019-03-25T12:37:25.146Z,17.77
2019-03-25T12:39:51.889Z,17.81
2019-03-25T12:42:18.522Z,17.97
2019-03-25T12:44:45.226Z,18.11
2019-03-25T12:47:11.914Z,18.32
2019-03-25T12:49:38.578Z,18.22
2019-03-25T12:52:05.213Z,18.33
2019-03-25T12:54:32.063Z,18.28
2019-03-25T12:56:58.780Z,18.22
2019-03-25T12:59:25.488Z,18.33
2019-03-25T13:01:53.368Z,18.30
2019-03-25T13:04:20.258Z,18.09
2019-03-25T13:06:46.999Z,18.14
2019-03-25T13:09:13.678Z,18.15
2019-03-25T13:11:40.446Z,18.06
2019-03-25T13:14:07.150Z,18.06
2019-03-25T13:16:33.870Z,18.13
2019-03-25T13:19:00.472Z,17.98
2019-03-25T13:21:27.164Z,17.96
2019-03-25T13:23:53.869Z,17.91
2019-03-25T13:26:20.593Z,18.00
2019-03-25T13:28:47.295Z,18.09
2019-03-25T13:31:14.003Z,18.43
2019-03-25T13:33:40.658Z,18.47
2019-03-25T13:36:07.394Z,18.46
2019-03-25T13:38:34.131Z,18.78
2019-03-25T13:41:00.759Z,19.07
2019-03-25T13:43:27.362Z,19.39
2019-03-25T13:46:04.801Z,19.41
2019-03-25T13:48:22.567Z,19.54
2019-03-25T13:50:49.197Z,19.79
2019-03-25T13:53:15.986Z,20.10
2019-03-25T13:55:42.618Z,19.77
2019-03-25T13:58:09.293Z,20.01
2019-03-25T14:00:37.096Z,20.36
2019-03-25T14:03:03.722Z,20.51
2019-03-25T14:05:30.354Z,20.51
2019-03-25T14:07:57.044Z,20.57
2019-03-25T14:10:23.747Z,20.23
2019-03-25T14:12:51.960Z,20.44
2019-03-25T14:15:18.934Z,20.42
2019-03-25T14:17:45.570Z,20.26
2019-03-25T14:20:12.249Z,19.82
2019-03-25T14:22:38.955Z,19.94
2019-03-25T14:25:05.702Z,20.09
2019-03-25T14:27:32.349Z,20.13
2019-03-25T14:29:59.101Z,20.23
2019-03-25T14:32:25.706Z,20.30
2019-03-25T14:34:52.393Z,20.57
2019-03-25T14:37:19.084Z,20.70
2019-03-25T14:39:45.734Z,20.68
2019-03-25T14:42:12.514Z,20.59
2019-03-25T14:44:39.239Z,20.14
2019-03-25T14:47:05.976Z,19.94
2019-03-25T14:49:32.690Z,19.96
2019-03-25T14:51:59.528Z,19.68
2019-03-25T14:54:26.169Z,19.38
2019-03-25T14:56:52.842Z,19.27
2019-03-25T14:59:20.443Z,19.22
2019-03-25T15:01:47.151Z,19.14
2019-03-25T15:04:13.855Z,19.18
2019-03-25T15:06:40.679Z,19.09
2019-03-25T15:09:07.527Z,19.15
2019-03-25T15:11:35.074Z,19.23
2019-03-25T15:14:02.093Z,19.15
2019-03-25T15:16:28.726Z,19.09
2019-03-25T15:18:55.352Z,18.95
2019-03-25T15:21:22.108Z,18.74
2019-03-25T15:23:48.710Z,18.48
2019-03-25T15:26:15.338Z,18.25
2019-03-25T15:28:42.010Z,18.07
2019-03-25T15:31:08.619Z,17.88
2019-03-25T15:33:35.292Z,17.79
2019-03-25T15:36:02.028Z,17.74
2019-03-25T15:38:28.655Z,17.69
2019-03-25T15:40:55.246Z,17.58
2019-03-25T15:43:22.926Z,17.55
2019-03-25T15:45:51.917Z,17.54
2019-03-25T15:48:18.207Z,17.45
2019-03-25T15:50:44.935Z,17.54
2019-03-25T15:53:11.543Z,17.49
2019-03-25T15:55:38.219Z,17.15
2019-03-25T15:58:05.027Z,16.71
2019-03-25T16:03:55.757Z,16.01
2019-03-25T16:06:22.528Z,15.58
2019-03-25T16:08:49.235Z,15.36
2019-03-25T16:11:15.934Z,14.97
2019-03-25T16:13:42.488Z,14.87
2019-03-25T16:16:09.141Z,14.74
2019-03-25T16:19:19.862Z,14.66
2019-03-25T16:21:46.576Z,14.53
2019-03-25T16:24:13.229Z,14.47
2019-03-25T16:26:39.904Z,14.39
2019-03-25T16:29:06.664Z,14.46
2019-03-25T16:31:33.354Z,14.35
2019-03-25T16:34:00.092Z,14.23
2019-03-25T16:36:26.699Z,14.21
2019-03-25T16:38:53.394Z,14.16
2019-03-25T16:41:20.157Z,14.26
2019-03-25T16:43:46.840Z,14.28
2019-03-25T16:46:13.473Z,13.97
2019-03-25T16:48:40.237Z,13.89
2019-03-25T16:51:06.827Z,13.55
2019-03-25T16:53:33.506Z,13.02
2019-03-25T16:56:00.181Z,12.93
2019-03-25T16:58:26.802Z,12.82
2019-03-25T17:00:53.443Z,12.72
2019-03-25T17:03:20.252Z,12.70
2019-03-25T17:05:46.961Z,12.38
2019-03-25T17:08:13.654Z,12.11
2019-03-25T17:10:40.375Z,11.93
2019-03-25T17:13:06.967Z,11.80
2019-03-25T17:15:33.632Z,11.59
2019-03-25T17:18:00.320Z,11.22
2019-03-25T17:20:27.057Z,11.04
2019-03-25T17:22:53.775Z,11.07
2019-03-25T17:25:20.496Z,10.78
2019-03-25T17:27:47.086Z,10.42
2019-03-25T17:30:15.149Z,10.52
2019-03-25T17:32:41.815Z,10.37
2019-03-25T17:35:08.532Z,10.33
2019-03-25T17:37:35.221Z,10.34
2019-03-25T17:40:02.028Z,10.21
2019-03-25T17:42:29.645Z,10.05
2019-03-25T17:44:56.318Z,9.74
2019-03-25T17:47:22.975Z,9.78
2019-03-25T17:49:49.612Z,9.66
2019-03-25T17:52:16.329Z,9.72
2019-03-25T17:54:43.120Z,9.50
2019-03-25T17:57:09.741Z,9.57
2019-03-25T17:59:36.396Z,9.55
2019-03-25T18:02:03.090Z,9.43
2019-03-25T18:04:29.745Z,9.42
2019-03-25T18:06:56.389Z,9.38
2019-03-25T18:09:23.109Z,9.44
2019-03-25T18:11:49.729Z,9.57
2019-03-25T18:14:16.418Z,9.42
2019-03-25T18:16:43.150Z,9.22
2019-03-25T18:19:09.750Z,9.18
2019-03-25T18:21:36.396Z,9.34
2019-03-25T18:24:03.122Z,9.38
2019-03-25T18:26:30.760Z,9.13
2019-03-25T18:28:57.386Z,9.12
2019-03-25T18:31:24.059Z,8.97
2019-03-25T18:33:50.734Z,8.80
2019-03-25T18:36:17.423Z,8.50
2019-03-25T18:38:44.111Z,8.22
2019-03-25T18:41:10.807Z,8.08
2019-03-25T18:43:37.511Z,8.27
2019-03-25T18:46:04.229Z,8.25
2019-03-25T18:48:30.808Z,8.21
2019-03-25T18:50:57.464Z,7.67
2019-03-25T18:53:24.160Z,7.63
2019-03-25T18:55:50.877Z,7.76
2019-03-25T18:58:17.605Z,7.87
2019-03-25T19:00:44.353Z,7.78
2019-03-25T19:03:10.987Z,7.82
2019-03-25T19:05:37.675Z,7.84
2019-03-25T19:08:04.765Z,7.58
2019-03-25T19:10:31.654Z,7.52
2019-03-25T19:12:58.374Z,7.30
2019-03-25T19:15:25.052Z,7.03
2019-03-25T19:17:51.747Z,6.37
2019-03-25T19:20:18.416Z,6.14
2019-03-25T19:22:45.205Z,5.71
2019-03-25T19:25:11.970Z,5.26
2019-03-25T19:27:38.651Z,5.01
2019-03-25T19:30:07.261Z,4.93
2019-03-25T19:32:33.908Z,4.82
2019-03-25T19:35:00.523Z,4.88
2019-03-25T19:37:27.235Z,4.96
2019-03-25T19:39:53.873Z,4.86
2019-03-25T19:42:20.632Z,4.96
2019-03-25T19:44:47.295Z,4.96
2019-03-25T19:47:13.912Z,4.56
2019-03-25T19:49:40.577Z,4.30
2019-03-25T19:52:09.506Z,4.20
2019-03-25T19:54:35.942Z,3.94
2019-03-25T19:57:02.663Z,3.97
2019-03-25T19:59:29.431Z,3.80
2019-03-25T20:01:56.161Z,3.73
2019-03-25T20:04:23.983Z,3.77
2019-03-25T20:06:51.657Z,3.75
2019-03-25T20:09:18.319Z,3.51
2019-03-25T20:11:45.066Z,3.57
2019-03-25T20:14:11.817Z,3.34
2019-03-25T20:16:38.542Z,3.30
2019-03-25T20:19:05.328Z,3.52
2019-03-25T20:21:32.078Z,3.65
2019-03-25T20:23:58.699Z,3.67
2019-03-25T20:26:25.494Z,3.64
2019-03-25T20:28:52.166Z,3.56
2019-03-25T20:31:18.918Z,3.48
2019-03-25T20:33:45.654Z,3.43
2019-03-25T20:36:12.360Z,3.60
2019-03-25T20:38:38.983Z,3.67
2019-03-25T20:41:05.700Z,3.74
2019-03-25T20:43:32.373Z,3.66
2019-03-25T20:45:59.101Z,3.58
2019-03-25T20:48:25.855Z,3.41
2019-03-25T20:50:52.620Z,3.35
2019-03-25T20:53:19.220Z,3.35
2019-03-25T20:55:45.939Z,3.29
2019-03-25T20:58:12.757Z,3.10
2019-03-25T21:00:51.101Z,3.07
2019-03-25T21:03:18.138Z,3.42
2019-03-25T21:05:44.887Z,3.38
2019-03-25T21:08:11.619Z,3.33
2019-03-25T21:10:39.307Z,3.32
2019-03-25T21:13:06.063Z,3.50
2019-03-25T21:15:32.767Z,3.59
2019-03-25T21:17:59.418Z,3.61
2019-03-25T21:20:26.082Z,3.77
2019-03-25T21:22:52.787Z,3.84
2019-03-25T21:25:19.520Z,3.60
2019-03-25T21:27:46.238Z,3.61
2019-03-25T21:30:12.990Z,3.70
2019-03-25T21:32:39.685Z,3.62
2019-03-25T21:35:06.673Z,3.70
2019-03-25T21:37:33.458Z,3.50
2019-03-25T21:40:00.074Z,3.42
2019-03-25T21:42:29.035Z,3.60
2019-03-25T21:44:55.313Z,3.59
2019-03-25T21:47:22.921Z,3.83
2019-03-25T21:49:49.728Z,3.95
2019-03-25T21:52:16.413Z,3.87
2019-03-25T21:54:43.058Z,4.09
2019-03-25T21:57:10.957Z,4.00
2019-03-25T21:59:37.723Z,3.76
2019-03-25T22:02:04.379Z,3.64
2019-03-25T22:04:32.073Z,3.65
2019-03-25T22:06:58.738Z,3.67
2019-03-25T22:09:25.406Z,3.56
2019-03-25T22:11:52.136Z,3.76
2019-03-25T22:14:18.745Z,3.80
2019-03-25T22:16:45.407Z,3.61
2019-03-25T22:19:12.107Z,3.58
2019-03-25T22:21:38.754Z,3.64
2019-03-25T22:24:05.381Z,3.77
2019-03-25T22:26:32.132Z,3.91
2019-03-25T22:28:58.787Z,3.87
2019-03-25T22:31:25.439Z,3.88
2019-03-25T22:33:52.129Z,3.91
2019-03-25T22:36:18.748Z,3.98
2019-03-25T22:38:45.450Z,4.10
2019-03-25T22:41:12.119Z,4.35
2019-03-25T22:43:38.829Z,4.54
2019-03-25T22:46:05.515Z,4.36
2019-03-25T22:48:32.242Z,4.41
2019-03-25T22:50:58.827Z,4.43
2019-03-25T22:53:25.487Z,4.52
2019-03-25T22:55:52.166Z,4.70
2019-03-25T22:58:18.880Z,4.56
2019-03-25T23:00:45.965Z,4.90
2019-03-25T23:03:12.687Z,4.92
2019-03-25T23:05:40.405Z,4.83
2019-03-25T23:08:07.037Z,4.76
2019-03-25T23:10:33.948Z,4.56
2019-03-25T23:13:00.538Z,4.58
2019-03-25T23:15:27.229Z,4.68
2019-03-25T23:17:53.921Z,4.89
2019-03-25T23:20:21.639Z,4.92
2019-03-25T23:22:48.328Z,4.99
2019-03-25T23:25:15.059Z,4.95
2019-03-25T23:27:42.771Z,4.85
2019-03-25T23:30:09.550Z,4.97
2019-03-25T23:32:36.240Z,5.11
2019-03-25T23:35:04.674Z,5.21
2019-03-25T23:37:31.362Z,4.99
2019-03-25T23:39:59.091Z,5.04
2019-03-25T23:42:25.771Z,5.14
2019-03-25T23:44:52.396Z,5.23
2019-03-25T23:47:19.200Z,5.19
2019-03-25T23:49:45.787Z,5.04
2019-03-25T23:52:12.474Z,4.66
2019-03-25T23:54:39.143Z,4.76
2019-03-25T23:57:05.764Z,4.75
2019-03-25T23:59:32.408Z,4.73
